createdAt,value
2023-06-25T00:00:35.885Z,25.00
2023-06-25T00:01:35.793Z,25.00
2023-06-25T00:02:35.895Z,0.00
2023-06-25T00:03:35.941Z,0.00
2023-06-25T00:04:35.956Z,0.00
2023-06-25T00:05:36.019Z,0.00
2023-06-25T00:06:36.090Z,0.00
2023-06-25T00:07:36.168Z,0.00
2023-06-25T00:08:36.230Z,0.00
2023-06-25T00:09:36.281Z,0.00
2023-06-25T00:10:36.740Z,0.00
2023-06-25T00:11:36.431Z,21.44
2023-06-25T00:12:36.521Z,25.00
2023-06-25T00:13:36.570Z,25.00
2023-06-25T00:14:36.640Z,25.32
2023-06-25T00:15:36.713Z,25.00
2023-06-25T00:16:36.794Z,27.08
2023-06-25T00:17:36.905Z,26.06
2023-06-25T00:18:36.950Z,27.39
2023-06-25T00:19:37.018Z,25.93
2023-06-25T00:20:37.332Z,25.00
2023-06-25T00:21:37.176Z,24.81
2023-06-25T00:22:37.249Z,26.70
2023-06-25T00:23:37.336Z,26.61
2023-06-25T00:24:37.391Z,25.12
2023-06-25T00:25:37.491Z,25.00
2023-06-25T00:26:37.512Z,28.51
2023-06-25T00:27:37.590Z,26.26
2023-06-25T00:28:37.676Z,27.25
2023-06-25T00:29:37.712Z,26.93
2023-06-25T00:30:38.012Z,25.00
2023-06-25T00:31:37.868Z,27.55
2023-06-25T00:32:37.942Z,27.75
2023-06-25T00:33:37.979Z,26.77
2023-06-25T00:34:38.047Z,27.03
2023-06-25T00:35:38.116Z,25.41
2023-06-25T00:36:38.180Z,25.62
2023-06-25T00:37:38.251Z,28.27
2023-06-25T00:38:38.335Z,25.83
2023-06-25T00:39:38.372Z,25.00
2023-06-25T00:40:38.687Z,27.81
2023-06-25T00:41:38.509Z,27.72
2023-06-25T00:42:38.582Z,26.39
2023-06-25T00:43:38.645Z,25.06
2023-06-25T00:44:38.762Z,25.45
2023-06-25T00:45:38.784Z,26.21
2023-06-25T00:46:38.843Z,27.43
2023-06-25T00:47:38.947Z,26.24
2023-06-25T00:48:38.970Z,26.00
2023-06-25T00:49:39.035Z,27.42
2023-06-25T00:50:39.340Z,25.13
2023-06-25T00:51:39.183Z,28.26
2023-06-25T00:52:39.236Z,26.10
2023-06-25T00:53:39.303Z,29.78
2023-06-25T00:54:39.380Z,27.10
2023-06-25T00:55:39.862Z,26.94
2023-06-25T00:56:39.510Z,28.04
2023-06-25T00:57:39.575Z,25.02
2023-06-25T00:58:39.746Z,28.62
2023-06-25T00:59:39.703Z,29.72
2023-06-25T01:00:39.891Z,25.54
2023-06-25T01:01:39.841Z,27.33
2023-06-25T01:02:39.921Z,28.40
2023-06-25T01:03:39.998Z,26.66
2023-06-25T01:04:39.974Z,27.51
2023-06-25T01:05:40.009Z,29.37
2023-06-25T01:06:40.070Z,25.69
2023-06-25T01:07:40.094Z,27.06
2023-06-25T01:08:40.164Z,33.29
2023-06-25T01:09:40.200Z,28.24
2023-06-25T01:10:40.244Z,29.35
2023-06-25T01:11:40.322Z,29.19
2023-06-25T01:12:40.350Z,29.09
2023-06-25T01:13:40.399Z,28.93
2023-06-25T01:14:40.447Z,27.23
2023-06-25T01:15:40.528Z,28.77
2023-06-25T01:16:40.622Z,29.21
2023-06-25T01:17:40.708Z,26.47
2023-06-25T01:18:42.958Z,28.83
2023-06-25T01:19:40.719Z,29.04
2023-06-25T01:20:40.725Z,29.83
2023-06-25T01:21:40.733Z,29.90
2023-06-25T01:22:40.751Z,28.53
2023-06-25T01:23:40.768Z,27.27
2023-06-25T01:24:40.770Z,26.51
2023-06-25T01:25:40.777Z,29.59
2023-06-25T01:26:40.784Z,25.94
2023-06-25T01:27:40.792Z,25.76
2023-06-25T01:28:40.785Z,28.79
2023-06-25T01:29:40.790Z,27.99
2023-06-25T01:30:40.790Z,29.45
2023-06-25T01:31:40.802Z,29.11
2023-06-25T01:32:40.876Z,28.98
2023-06-25T01:33:40.806Z,26.31
2023-06-25T01:34:40.809Z,27.85
2023-06-25T01:35:40.821Z,28.13
2023-06-25T01:36:40.882Z,25.88
2023-06-25T01:37:40.834Z,28.00
2023-06-25T01:38:40.856Z,30.10
2023-06-25T01:39:40.847Z,28.07
2023-06-25T01:40:40.858Z,28.01
2023-06-25T01:41:40.874Z,25.00
2023-06-25T01:42:40.883Z,27.93
2023-06-25T01:43:41.329Z,29.60
2023-06-25T01:44:40.895Z,26.28
2023-06-25T01:45:40.936Z,27.95
2023-06-25T01:46:40.910Z,27.06
2023-06-25T01:47:40.979Z,31.56
2023-06-25T01:48:40.972Z,26.53
2023-06-25T01:49:40.930Z,27.91
2023-06-25T01:50:40.938Z,28.92
2023-06-25T01:51:40.971Z,29.59
2023-06-25T01:52:41.030Z,29.82
2023-06-25T01:53:41.087Z,27.01
2023-06-25T01:54:41.159Z,31.27
2023-06-25T01:55:41.223Z,29.10
2023-06-25T01:56:41.291Z,31.42
2023-06-25T01:57:41.354Z,29.27
2023-06-25T01:58:41.420Z,30.27
2023-06-25T01:59:41.507Z,30.90
2023-06-25T02:00:41.585Z,28.77
2023-06-25T02:01:41.688Z,29.18
2023-06-25T02:02:41.947Z,28.99
2023-06-25T02:03:41.922Z,28.85
2023-06-25T02:04:41.922Z,31.03
2023-06-25T02:05:41.969Z,28.38
2023-06-25T02:06:42.092Z,29.98
2023-06-25T02:07:42.131Z,29.81
2023-06-25T02:08:42.218Z,30.39
2023-06-25T02:09:42.297Z,32.14
2023-06-25T02:10:42.386Z,29.02
2023-06-25T02:11:42.482Z,31.95
2023-06-25T02:12:42.574Z,28.13
2023-06-25T02:13:42.636Z,29.34
2023-06-25T02:14:42.717Z,30.33
2023-06-25T02:15:42.839Z,29.65
2023-06-25T02:16:42.880Z,31.74
2023-06-25T02:17:42.972Z,28.68
2023-06-25T02:18:43.042Z,29.57
2023-06-25T02:19:43.126Z,27.01
2023-06-25T02:20:43.243Z,31.46
2023-06-25T02:21:43.294Z,32.59
2023-06-25T02:22:43.377Z,27.63
2023-06-25T02:23:43.467Z,29.96
2023-06-25T02:24:43.569Z,29.10
2023-06-25T02:25:43.645Z,28.07
2023-06-25T02:26:43.744Z,28.85
2023-06-25T02:27:43.808Z,31.20
2023-06-25T02:28:43.871Z,29.06
2023-06-25T02:29:43.948Z,28.86
2023-06-25T02:30:44.018Z,30.37
2023-06-25T02:31:44.282Z,33.75
2023-06-25T02:32:44.233Z,30.79
2023-06-25T02:33:44.250Z,28.56
2023-06-25T02:34:44.310Z,28.98
2023-06-25T02:35:44.383Z,29.89
2023-06-25T02:36:44.477Z,30.61
2023-06-25T02:37:44.516Z,29.47
2023-06-25T02:38:44.592Z,29.32
2023-06-25T02:39:44.658Z,30.52
2023-06-25T02:40:44.733Z,31.40
2023-06-25T02:41:44.798Z,29.87
2023-06-25T02:42:44.882Z,30.99
2023-06-25T02:43:44.945Z,29.48
2023-06-25T02:44:45.022Z,28.32
2023-06-25T02:45:45.094Z,29.92
2023-06-25T02:46:45.228Z,29.67
2023-06-25T02:47:45.260Z,29.95
2023-06-25T02:48:45.322Z,32.44
2023-06-25T02:49:45.388Z,31.05
2023-06-25T02:50:45.465Z,28.64
2023-06-25T02:51:45.529Z,31.06
2023-06-25T02:52:45.638Z,32.35
2023-06-25T02:53:45.683Z,31.82
2023-06-25T02:54:45.778Z,29.21
2023-06-25T02:55:45.896Z,33.07
2023-06-25T02:56:45.904Z,31.34
2023-06-25T02:57:45.980Z,30.34
2023-06-25T02:58:46.059Z,31.06
2023-06-25T02:59:46.119Z,27.25
2023-06-25T03:00:46.954Z,30.44
2023-06-25T03:01:46.273Z,30.01
2023-06-25T03:02:46.916Z,30.25
2023-06-25T03:03:46.429Z,32.32
2023-06-25T03:04:46.501Z,30.34
2023-06-25T03:05:46.573Z,28.15
2023-06-25T03:06:46.674Z,33.20
2023-06-25T03:07:46.721Z,31.68
2023-06-25T03:08:46.815Z,27.86
2023-06-25T03:09:46.863Z,30.50
2023-06-25T03:10:46.951Z,31.85
2023-06-25T03:11:47.004Z,30.71
2023-06-25T03:12:47.054Z,29.46
2023-06-25T03:13:47.103Z,30.85
2023-06-25T03:14:47.154Z,26.99
2023-06-25T03:15:47.179Z,29.55
2023-06-25T03:16:47.244Z,27.89
2023-06-25T03:17:47.351Z,29.56
2023-06-25T03:18:47.311Z,30.13
2023-06-25T03:19:47.348Z,31.29
2023-06-25T03:20:47.385Z,30.89
2023-06-25T03:21:47.411Z,29.64
2023-06-25T03:22:47.496Z,30.74
2023-06-25T03:23:47.509Z,30.83
2023-06-25T03:24:47.553Z,29.92
2023-06-25T03:25:47.558Z,31.34
2023-06-25T03:26:47.588Z,31.78
2023-06-25T03:27:47.595Z,30.54
2023-06-25T03:28:47.607Z,30.75
2023-06-25T03:29:47.625Z,29.02
2023-06-25T03:30:47.740Z,30.98
2023-06-25T03:31:47.667Z,32.40
2023-06-25T03:32:47.787Z,30.79
2023-06-25T03:33:47.687Z,31.16
2023-06-25T03:34:47.693Z,29.23
2023-06-25T03:35:47.715Z,31.57
2023-06-25T03:36:47.712Z,29.64
2023-06-25T03:37:47.732Z,28.53
2023-06-25T03:38:47.766Z,29.60
2023-06-25T03:39:47.829Z,30.57
2023-06-25T03:40:47.915Z,29.54
2023-06-25T03:41:47.948Z,30.25
2023-06-25T03:42:48.044Z,30.14
2023-06-25T03:43:48.081Z,28.09
2023-06-25T03:44:48.146Z,30.57
2023-06-25T03:45:48.201Z,29.90
2023-06-25T03:46:48.203Z,31.40
2023-06-25T03:47:48.376Z,30.91
2023-06-25T03:48:48.308Z,30.62
2023-06-25T03:49:48.269Z,29.91
2023-06-25T03:50:48.257Z,30.66
2023-06-25T03:51:48.257Z,28.90
2023-06-25T03:52:48.263Z,32.03
2023-06-25T03:53:48.273Z,29.21
2023-06-25T03:54:48.277Z,26.30
2023-06-25T03:55:48.275Z,31.01
2023-06-25T03:56:48.313Z,28.95
2023-06-25T03:57:48.316Z,27.66
2023-06-25T03:58:48.340Z,28.72
2023-06-25T03:59:48.308Z,32.36
2023-06-25T04:00:48.317Z,29.84
2023-06-25T04:01:48.361Z,30.53
2023-06-25T04:02:48.350Z,31.26
2023-06-25T04:03:48.361Z,27.55
2023-06-25T04:04:48.313Z,30.32
2023-06-25T04:05:48.315Z,28.54
2023-06-25T04:06:48.396Z,29.69
2023-06-25T04:07:48.336Z,28.81
2023-06-25T04:08:48.366Z,27.49
2023-06-25T04:09:48.348Z,28.22
2023-06-25T04:10:48.378Z,27.69
2023-06-25T04:11:48.393Z,28.86
2023-06-25T04:12:48.412Z,30.61
2023-06-25T04:13:48.414Z,30.01
2023-06-25T04:14:48.419Z,29.27
2023-06-25T04:15:48.426Z,30.24
2023-06-25T04:16:48.438Z,27.31
2023-06-25T04:17:48.508Z,28.08
2023-06-25T04:18:48.454Z,26.51
2023-06-25T04:19:48.458Z,30.53
2023-06-25T04:20:48.467Z,25.41
2023-06-25T04:21:48.490Z,27.84
2023-06-25T04:22:48.499Z,29.03
2023-06-25T04:23:48.505Z,29.21
2023-06-25T04:24:48.514Z,30.22
2023-06-25T04:25:48.529Z,29.13
2023-06-25T04:26:48.528Z,29.37
2023-06-25T04:27:48.550Z,31.92
2023-06-25T04:28:48.588Z,27.53
2023-06-25T04:29:48.570Z,29.61
2023-06-25T04:30:48.588Z,27.50
2023-06-25T04:31:48.665Z,29.38
2023-06-25T04:32:48.603Z,27.77
2023-06-25T04:33:48.584Z,29.08
2023-06-25T04:34:48.585Z,30.01
2023-06-25T04:35:48.593Z,29.35
2023-06-25T04:36:48.593Z,29.48
2023-06-25T04:37:48.605Z,30.53
2023-06-25T04:38:48.611Z,29.02
2023-06-25T04:39:48.630Z,29.68
2023-06-25T04:40:48.641Z,29.52
2023-06-25T04:41:48.665Z,31.88
2023-06-25T04:42:48.744Z,28.42
2023-06-25T04:43:48.782Z,29.38
2023-06-25T04:44:48.814Z,30.79
2023-06-25T04:45:48.838Z,30.39
2023-06-25T04:46:48.859Z,31.81
2023-06-25T04:47:48.947Z,32.07
2023-06-25T04:48:48.929Z,30.02
2023-06-25T04:49:48.928Z,28.29
2023-06-25T04:50:48.995Z,28.84
2023-06-25T04:51:48.942Z,31.33
2023-06-25T04:52:48.954Z,29.45
2023-06-25T04:53:48.991Z,30.63
2023-06-25T04:54:48.989Z,29.40
2023-06-25T04:55:49.013Z,29.65
2023-06-25T04:56:49.018Z,30.10
2023-06-25T04:57:49.029Z,29.13
2023-06-25T04:58:49.040Z,27.47
2023-06-25T04:59:49.061Z,27.88
2023-06-25T05:00:49.133Z,29.36
2023-06-25T05:01:49.259Z,26.80
2023-06-25T05:02:49.171Z,28.34
2023-06-25T05:03:49.175Z,28.91
2023-06-25T05:04:49.146Z,30.53
2023-06-25T05:05:49.172Z,28.74
2023-06-25T05:06:49.198Z,30.13
2023-06-25T05:07:49.211Z,27.65
2023-06-25T05:08:49.245Z,30.82
2023-06-25T05:09:49.280Z,27.38
2023-06-25T05:10:49.344Z,26.99
2023-06-25T05:11:49.423Z,29.97
2023-06-25T05:12:49.512Z,29.24
2023-06-25T05:13:49.562Z,29.47
2023-06-25T05:14:49.638Z,29.33
2023-06-25T05:15:49.709Z,30.05
2023-06-25T05:16:49.905Z,31.20
2023-06-25T05:17:49.965Z,34.75
2023-06-25T05:18:52.613Z,28.65
2023-06-25T05:19:49.940Z,36.09
2023-06-25T05:20:49.954Z,32.78
2023-06-25T05:21:49.956Z,30.36
2023-06-25T05:22:49.975Z,32.87
2023-06-25T05:23:49.979Z,30.68
2023-06-25T05:24:49.994Z,28.47
2023-06-25T05:25:50.005Z,29.89
2023-06-25T05:26:50.024Z,33.43
2023-06-25T05:27:50.683Z,30.33
2023-06-25T05:28:50.026Z,35.26
2023-06-25T05:29:50.039Z,35.63
2023-06-25T05:30:50.066Z,34.75
2023-06-25T05:31:50.056Z,28.47
2023-06-25T05:32:50.103Z,30.99
2023-06-25T05:33:50.080Z,30.64
2023-06-25T05:34:50.090Z,32.80
2023-06-25T05:35:50.095Z,33.85
2023-06-25T05:36:50.101Z,30.86
2023-06-25T05:37:50.115Z,28.97
2023-06-25T05:38:51.644Z,31.78
2023-06-25T05:39:50.332Z,33.29
2023-06-25T05:40:50.400Z,31.31
2023-06-25T05:41:50.468Z,31.98
2023-06-25T05:42:50.546Z,33.16
2023-06-25T05:43:50.645Z,30.08
2023-06-25T05:44:51.432Z,30.66
2023-06-25T05:45:50.749Z,33.17
2023-06-25T05:46:50.854Z,30.29
2023-06-25T05:47:50.939Z,31.93
2023-06-25T05:48:51.003Z,31.26
2023-06-25T05:49:51.035Z,29.87
2023-06-25T05:50:51.092Z,29.57
2023-06-25T05:51:51.168Z,31.60
2023-06-25T05:52:51.267Z,31.78
2023-06-25T05:53:51.306Z,29.29
2023-06-25T05:54:51.373Z,31.04
2023-06-25T05:55:51.447Z,31.01
2023-06-25T05:56:51.512Z,26.78
2023-06-25T05:57:51.585Z,31.73
2023-06-25T05:58:51.653Z,31.42
2023-06-25T05:59:51.778Z,28.43
2023-06-25T06:00:51.823Z,28.54
2023-06-25T06:01:51.853Z,28.83
2023-06-25T06:02:52.042Z,29.96
2023-06-25T06:03:52.049Z,31.46
2023-06-25T06:04:52.082Z,30.22
2023-06-25T06:05:52.122Z,31.09
2023-06-25T06:06:52.215Z,31.88
2023-06-25T06:07:52.246Z,31.03
2023-06-25T06:08:52.315Z,31.34
2023-06-25T06:09:52.387Z,30.02
2023-06-25T06:10:52.451Z,29.39
2023-06-25T06:11:52.520Z,28.61
2023-06-25T06:12:52.580Z,29.24
2023-06-25T06:13:53.794Z,30.47
2023-06-25T06:14:52.655Z,31.54
2023-06-25T06:15:52.657Z,32.24
2023-06-25T06:16:52.673Z,30.28
2023-06-25T06:17:52.731Z,32.01
2023-06-25T06:18:52.694Z,30.73
2023-06-25T06:19:53.278Z,32.07
2023-06-25T06:20:52.732Z,30.70
2023-06-25T06:21:52.717Z,34.04
2023-06-25T06:22:52.728Z,30.18
2023-06-25T06:23:52.739Z,29.03
2023-06-25T06:24:52.740Z,31.62
2023-06-25T06:25:52.776Z,28.93
2023-06-25T06:26:52.850Z,29.06
2023-06-25T06:27:52.917Z,28.42
2023-06-25T06:28:52.988Z,28.18
2023-06-25T06:29:53.052Z,27.09
2023-06-25T06:30:53.172Z,29.48
2023-06-25T06:31:53.190Z,28.78
2023-06-25T06:32:53.347Z,29.97
2023-06-25T06:33:53.323Z,27.89
2023-06-25T06:34:53.382Z,31.23
2023-06-25T06:35:53.451Z,29.76
2023-06-25T06:36:53.537Z,26.44
2023-06-25T06:37:53.584Z,27.45
2023-06-25T06:38:53.633Z,26.68
2023-06-25T06:39:53.710Z,29.10
2023-06-25T06:40:53.800Z,29.41
2023-06-25T06:41:53.849Z,29.16
2023-06-25T06:42:53.964Z,31.26
2023-06-25T06:43:53.982Z,27.73
2023-06-25T06:44:54.053Z,28.59
2023-06-25T06:45:54.118Z,27.08
2023-06-25T06:46:54.183Z,31.30
2023-06-25T06:47:54.293Z,30.51
2023-06-25T06:48:54.254Z,29.47
2023-06-25T06:49:54.316Z,31.50
2023-06-25T06:50:54.354Z,30.85
2023-06-25T06:51:54.407Z,31.99
2023-06-25T06:52:54.510Z,30.72
2023-06-25T06:53:54.540Z,30.30
2023-06-25T06:54:54.613Z,32.03
2023-06-25T06:55:54.667Z,31.91
2023-06-25T06:56:54.769Z,31.97
2023-06-25T06:57:54.781Z,30.40
2023-06-25T06:58:54.857Z,32.62
2023-06-25T06:59:54.923Z,33.12
2023-06-25T07:00:54.978Z,30.77
2023-06-25T07:01:55.097Z,29.75
2023-06-25T07:02:55.141Z,31.54
2023-06-25T07:03:55.200Z,32.44
2023-06-25T07:04:55.261Z,30.83
2023-06-25T07:05:55.423Z,31.74
2023-06-25T07:06:55.421Z,32.80
2023-06-25T07:07:55.475Z,30.46
2023-06-25T07:08:55.670Z,30.28
2023-06-25T07:09:55.612Z,33.18
2023-06-25T07:10:55.693Z,30.89
2023-06-25T07:11:55.758Z,31.34
2023-06-25T07:12:55.830Z,31.12
2023-06-25T07:13:55.902Z,31.38
2023-06-25T07:14:55.961Z,32.80
2023-06-25T07:15:56.023Z,28.41
2023-06-25T07:16:56.088Z,31.26
2023-06-25T07:17:56.222Z,32.56
2023-06-25T07:18:56.221Z,28.45
2023-06-25T07:19:56.285Z,34.28
2023-06-25T07:20:56.343Z,30.85
2023-06-25T07:21:56.409Z,32.76
2023-06-25T07:22:56.475Z,32.72
2023-06-25T07:23:56.538Z,33.28
2023-06-25T07:24:56.639Z,32.41
2023-06-25T07:25:56.664Z,31.50
2023-06-25T07:26:56.721Z,35.48
2023-06-25T07:27:56.798Z,31.15
2023-06-25T07:28:56.851Z,29.35
2023-06-25T07:29:56.908Z,30.90
2023-06-25T07:30:56.959Z,33.05
2023-06-25T07:31:57.067Z,30.92
2023-06-25T07:32:57.135Z,30.63
2023-06-25T07:33:57.154Z,28.40
2023-06-25T07:34:57.200Z,32.91
2023-06-25T07:35:57.253Z,29.16
2023-06-25T07:36:57.311Z,30.98
2023-06-25T07:37:57.369Z,29.02
2023-06-25T07:38:57.442Z,28.88
2023-06-25T07:39:57.485Z,32.14
2023-06-25T07:40:57.586Z,33.24
2023-06-25T07:41:57.610Z,34.53
2023-06-25T07:42:57.668Z,31.45
2023-06-25T07:43:57.737Z,31.20
2023-06-25T07:44:57.790Z,29.74
2023-06-25T07:45:57.908Z,31.58
2023-06-25T07:46:57.923Z,32.21
2023-06-25T07:47:58.029Z,30.22
2023-06-25T07:48:58.055Z,32.20
2023-06-25T07:49:58.120Z,30.79
2023-06-25T07:50:58.197Z,33.72
2023-06-25T07:51:58.264Z,33.22
2023-06-25T07:52:58.343Z,32.74
2023-06-25T07:53:58.391Z,31.05
2023-06-25T07:54:58.464Z,31.65
2023-06-25T07:56:02.995Z,31.52
2023-06-25T07:56:58.564Z,31.77
2023-06-25T07:57:58.521Z,32.64
2023-06-25T07:58:58.525Z,32.67
2023-06-25T07:59:58.533Z,32.94
2023-06-25T08:00:58.530Z,32.94
2023-06-25T08:01:58.535Z,35.54
2023-06-25T08:02:58.716Z,32.67
2023-06-25T08:03:58.656Z,33.05
2023-06-25T08:04:58.607Z,32.74
2023-06-25T08:05:58.554Z,30.75
2023-06-25T08:06:58.595Z,34.45
2023-06-25T08:07:58.576Z,27.96
2023-06-25T08:08:58.580Z,32.30
2023-06-25T08:09:59.990Z,32.54
2023-06-25T08:10:58.823Z,38.32
2023-06-25T08:11:58.889Z,36.35
2023-06-25T08:12:58.964Z,33.36
2023-06-25T08:13:59.006Z,32.33
2023-06-25T08:14:59.057Z,31.88
2023-06-25T08:15:59.116Z,33.21
2023-06-25T08:16:59.181Z,31.91
2023-06-25T08:17:59.281Z,35.97
2023-06-25T08:18:59.290Z,34.15
2023-06-25T08:19:59.367Z,29.90
2023-06-25T08:20:59.419Z,31.46
2023-06-25T08:21:59.484Z,33.08
2023-06-25T08:22:59.536Z,33.86
2023-06-25T08:23:59.600Z,33.89
2023-06-25T08:24:59.648Z,32.34
2023-06-25T08:25:59.707Z,31.51
2023-06-25T08:26:59.768Z,33.99
2023-06-25T08:27:59.823Z,34.64
2023-06-25T08:28:59.925Z,32.52
2023-06-25T08:29:59.933Z,30.97
2023-06-25T08:31:00.010Z,34.32
2023-06-25T08:32:00.038Z,37.93
2023-06-25T08:33:00.113Z,32.12
2023-06-25T08:34:00.153Z,32.79
2023-06-25T08:35:00.211Z,34.26
2023-06-25T08:36:00.246Z,33.36
2023-06-25T08:37:00.301Z,34.29
2023-06-25T08:38:00.348Z,33.24
2023-06-25T08:39:00.415Z,33.43
2023-06-25T08:40:00.456Z,35.75
2023-06-25T08:41:00.524Z,33.10
2023-06-25T08:42:00.607Z,35.41
2023-06-25T08:43:00.613Z,31.27
2023-06-25T08:44:00.670Z,37.18
2023-06-25T08:45:00.758Z,35.71
2023-06-25T08:46:00.786Z,34.08
2023-06-25T08:47:00.993Z,33.30
2023-06-25T08:48:00.928Z,34.56
2023-06-25T08:49:00.936Z,36.15
2023-06-25T08:50:00.969Z,36.33
2023-06-25T08:51:01.017Z,35.26
2023-06-25T08:52:01.067Z,34.31
2023-06-25T08:53:01.137Z,34.22
2023-06-25T08:54:01.180Z,36.68
2023-06-25T08:55:01.251Z,32.38
2023-06-25T08:56:01.319Z,35.52
2023-06-25T08:57:01.321Z,33.36
2023-06-25T08:58:01.368Z,37.58
2023-06-25T08:59:01.417Z,39.21
2023-06-25T09:00:01.455Z,31.78
2023-06-25T09:01:01.570Z,33.34
2023-06-25T09:02:01.619Z,35.71
2023-06-25T09:03:01.827Z,34.27
2023-06-25T09:04:01.624Z,33.76
2023-06-25T09:05:01.666Z,34.41
2023-06-25T09:06:01.690Z,33.63
2023-06-25T09:07:04.525Z,33.92
2023-06-25T09:08:01.715Z,34.10
2023-06-25T09:09:01.699Z,34.49
2023-06-25T09:10:01.739Z,34.15
2023-06-25T09:11:01.701Z,33.58
2023-06-25T09:12:01.775Z,34.47
2023-06-25T09:13:01.706Z,39.07
2023-06-25T09:14:01.712Z,36.07
2023-06-25T09:15:01.702Z,36.05
2023-06-25T09:16:01.692Z,35.57
2023-06-25T09:17:01.716Z,37.59
2023-06-25T09:18:01.771Z,34.14
2023-06-25T09:19:01.705Z,39.24
2023-06-25T09:20:01.700Z,36.46
2023-06-25T09:21:01.701Z,40.98
2023-06-25T09:22:01.696Z,36.73
2023-06-25T09:23:01.697Z,36.39
2023-06-25T09:24:01.706Z,36.79
2023-06-25T09:25:01.756Z,37.42
2023-06-25T09:26:01.700Z,39.44
2023-06-25T09:27:01.702Z,39.50
2023-06-25T09:28:01.701Z,36.28
2023-06-25T09:29:01.704Z,36.77
2023-06-25T09:30:01.727Z,37.48
2023-06-25T09:31:01.771Z,35.77
2023-06-25T09:32:01.707Z,36.33
2023-06-25T09:33:01.794Z,37.70
2023-06-25T09:34:01.725Z,39.87
2023-06-25T09:35:01.714Z,38.21
2023-06-25T09:36:05.099Z,38.25
2023-06-25T09:37:01.717Z,38.52
2023-06-25T09:38:01.723Z,39.50
2023-06-25T09:39:01.724Z,39.86
2023-06-25T09:40:01.720Z,40.31
2023-06-25T09:41:01.733Z,41.60
2023-06-25T09:42:01.721Z,41.21
2023-06-25T09:43:01.717Z,38.51
2023-06-25T09:44:01.728Z,37.73
2023-06-25T09:45:01.711Z,39.44
2023-06-25T09:46:01.759Z,38.01
2023-06-25T09:47:01.706Z,35.18
2023-06-25T09:48:01.720Z,37.30
2023-06-25T09:49:01.775Z,38.27
2023-06-25T09:50:01.704Z,40.09
2023-06-25T09:51:01.692Z,40.11
2023-06-25T09:52:01.694Z,35.13
2023-06-25T09:53:01.701Z,40.59
2023-06-25T09:54:01.709Z,38.17
2023-06-25T09:55:01.684Z,38.45
2023-06-25T09:56:01.672Z,37.94
2023-06-25T09:57:01.670Z,38.36
2023-06-25T09:58:01.659Z,38.94
2023-06-25T09:59:01.659Z,37.85
2023-06-25T10:00:01.646Z,34.73
2023-06-25T10:01:01.641Z,39.98
2023-06-25T10:02:01.789Z,39.06
2023-06-25T10:03:01.848Z,37.13
2023-06-25T10:04:01.750Z,37.73
2023-06-25T10:05:01.640Z,37.40
2023-06-25T10:06:01.609Z,35.11
2023-06-25T10:07:01.606Z,36.14
2023-06-25T10:08:01.585Z,35.82
2023-06-25T10:09:01.585Z,35.60
2023-06-25T10:10:01.577Z,38.71
2023-06-25T10:11:01.693Z,38.56
2023-06-25T10:12:01.580Z,39.97
2023-06-25T10:13:01.564Z,38.00
2023-06-25T10:14:01.563Z,38.81
2023-06-25T10:15:01.602Z,33.76
2023-06-25T10:16:01.557Z,33.01
2023-06-25T10:17:01.566Z,37.69
2023-06-25T10:18:01.682Z,36.86
2023-06-25T10:19:01.540Z,36.73
2023-06-25T10:20:01.535Z,35.50
2023-06-25T10:21:01.606Z,35.19
2023-06-25T10:22:01.533Z,36.45
2023-06-25T10:23:01.523Z,37.77
2023-06-25T10:24:01.525Z,38.08
2023-06-25T10:25:01.532Z,37.43
2023-06-25T10:26:01.523Z,33.58
2023-06-25T10:27:01.522Z,36.99
2023-06-25T10:28:01.518Z,36.63
2023-06-25T10:29:01.513Z,36.97
2023-06-25T10:30:01.507Z,35.35
2023-06-25T10:31:01.551Z,38.21
2023-06-25T10:32:01.536Z,33.69
2023-06-25T10:33:01.545Z,33.05
2023-06-25T10:34:01.479Z,37.24
2023-06-25T10:35:01.478Z,36.22
2023-06-25T10:36:01.479Z,36.49
2023-06-25T10:37:01.504Z,36.38
2023-06-25T10:38:01.458Z,38.34
2023-06-25T10:39:01.457Z,41.80
2023-06-25T10:40:01.468Z,36.36
2023-06-25T10:41:01.441Z,35.85
2023-06-25T10:42:01.443Z,38.11
2023-06-25T10:43:01.424Z,35.37
2023-06-25T10:44:01.415Z,36.86
2023-06-25T10:45:01.425Z,35.67
2023-06-25T10:46:01.389Z,39.29
2023-06-25T10:47:01.430Z,40.67
2023-06-25T10:48:01.409Z,37.23
2023-06-25T10:49:01.418Z,35.98
2023-06-25T10:50:01.437Z,35.06
2023-06-25T10:51:01.451Z,35.32
2023-06-25T10:52:01.476Z,37.61
2023-06-25T10:53:01.495Z,36.88
2023-06-25T10:54:01.497Z,38.28
2023-06-25T10:55:01.576Z,36.95
2023-06-25T10:56:01.545Z,35.31
2023-06-25T10:57:01.583Z,36.59
2023-06-25T10:58:01.621Z,34.05
2023-06-25T10:59:01.664Z,37.76
2023-06-25T11:00:01.661Z,38.04
2023-06-25T11:01:01.677Z,36.45
2023-06-25T11:02:01.673Z,39.24
2023-06-25T11:03:01.769Z,41.93
2023-06-25T11:04:01.732Z,38.10
2023-06-25T11:05:01.741Z,40.36
2023-06-25T11:06:01.779Z,38.41
2023-06-25T11:07:01.964Z,35.64
2023-06-25T11:08:01.854Z,34.16
2023-06-25T11:09:01.936Z,34.34
2023-06-25T11:10:01.977Z,35.17
2023-06-25T11:11:02.020Z,36.51
2023-06-25T11:12:02.072Z,35.59
2023-06-25T11:13:02.091Z,36.48
2023-06-25T11:14:02.145Z,39.73
2023-06-25T11:15:02.160Z,36.35
2023-06-25T11:16:02.153Z,39.19
2023-06-25T11:17:02.175Z,36.13
2023-06-25T11:18:02.230Z,37.16
2023-06-25T11:19:02.212Z,38.16
2023-06-25T11:20:02.231Z,35.12
2023-06-25T11:21:02.242Z,38.81
2023-06-25T11:22:02.267Z,35.10
2023-06-25T11:23:02.251Z,32.75
2023-06-25T11:24:02.242Z,40.81
2023-06-25T11:25:02.279Z,35.46
2023-06-25T11:26:03.350Z,34.01
2023-06-25T11:27:02.238Z,33.87
2023-06-25T11:28:02.235Z,37.67
2023-06-25T11:29:02.226Z,35.71
2023-06-25T11:30:02.243Z,35.62
2023-06-25T11:31:02.223Z,35.18
2023-06-25T11:32:02.251Z,35.69
2023-06-25T11:33:02.274Z,34.07
2023-06-25T11:34:02.258Z,35.59
2023-06-25T11:35:02.273Z,40.18
2023-06-25T11:36:02.285Z,34.43
2023-06-25T11:37:02.332Z,35.68
2023-06-25T11:38:02.360Z,34.81
2023-06-25T11:39:02.399Z,36.41
2023-06-25T11:40:02.385Z,34.13
2023-06-25T11:41:02.434Z,39.48
2023-06-25T11:42:02.426Z,32.77
2023-06-25T11:43:02.432Z,37.97
2023-06-25T11:44:02.456Z,38.52
2023-06-25T11:45:02.466Z,36.12
2023-06-25T11:46:02.552Z,37.46
2023-06-25T11:47:02.511Z,38.07
2023-06-25T11:48:02.558Z,36.14
2023-06-25T11:49:02.545Z,33.04
2023-06-25T11:50:02.614Z,37.54
2023-06-25T11:51:02.585Z,41.35
2023-06-25T11:52:02.609Z,38.57
2023-06-25T11:53:02.624Z,36.72
2023-06-25T11:54:02.641Z,36.76
2023-06-25T11:55:02.660Z,35.12
2023-06-25T11:56:02.787Z,35.04
2023-06-25T11:57:02.715Z,37.04
2023-06-25T11:58:02.691Z,36.45
2023-06-25T11:59:02.706Z,32.21
2023-06-25T12:00:03.284Z,36.95
2023-06-25T12:01:02.717Z,37.17
2023-06-25T12:02:02.730Z,40.23
2023-06-25T12:03:02.823Z,37.60
2023-06-25T12:04:02.777Z,37.88
2023-06-25T12:05:02.693Z,39.15
2023-06-25T12:06:02.692Z,35.00
2023-06-25T12:07:02.699Z,39.24
2023-06-25T12:08:02.688Z,35.45
2023-06-25T12:09:02.679Z,35.15
2023-06-25T12:10:02.669Z,34.70
2023-06-25T12:11:02.666Z,36.76
2023-06-25T12:12:02.671Z,34.90
2023-06-25T12:13:02.760Z,37.12
2023-06-25T12:14:02.655Z,35.81
2023-06-25T12:15:02.649Z,34.29
2023-06-25T12:16:02.654Z,34.88
2023-06-25T12:17:02.645Z,33.61
2023-06-25T12:18:02.710Z,36.37
2023-06-25T12:19:02.643Z,33.85
2023-06-25T12:20:02.632Z,37.55
2023-06-25T12:21:02.643Z,36.38
2023-06-25T12:22:02.643Z,34.97
2023-06-25T12:23:02.632Z,34.93
2023-06-25T12:24:02.634Z,35.32
2023-06-25T12:25:02.717Z,31.98
2023-06-25T12:26:02.612Z,34.51
2023-06-25T12:27:02.614Z,36.44
2023-06-25T12:28:02.620Z,33.15
2023-06-25T12:29:02.634Z,37.49
2023-06-25T12:30:02.610Z,34.73
2023-06-25T12:31:02.609Z,34.79
2023-06-25T12:32:02.815Z,33.55
2023-06-25T12:33:02.609Z,36.92
2023-06-25T12:34:02.600Z,37.36
2023-06-25T12:35:02.578Z,36.83
2023-06-25T12:36:02.574Z,35.33
2023-06-25T12:37:02.573Z,35.01
2023-06-25T12:38:02.572Z,38.26
2023-06-25T12:39:02.563Z,37.19
2023-06-25T12:40:02.556Z,38.03
2023-06-25T12:41:02.554Z,37.36
2023-06-25T12:42:02.533Z,38.33
2023-06-25T12:43:02.532Z,33.57
2023-06-25T12:44:02.526Z,34.94
2023-06-25T12:45:02.570Z,35.65
2023-06-25T12:46:02.498Z,37.24
2023-06-25T12:47:02.499Z,35.82
2023-06-25T12:48:02.532Z,35.89
2023-06-25T12:49:02.488Z,34.21
2023-06-25T12:50:02.483Z,38.35
2023-06-25T12:51:02.467Z,34.47
2023-06-25T12:52:02.476Z,37.44
2023-06-25T12:53:02.458Z,37.39